createdAt,value
2018-11-29T00:00:40.203Z,99528.23
2018-11-29T00:03:07.646Z,99520.88
2018-11-29T00:05:35.115Z,99530.02
2018-11-29T00:08:02.563Z,99534.54
2018-11-29T00:10:30.020Z,99526.33
2018-11-29T00:12:57.482Z,99521.19
2018-11-29T00:15:24.916Z,99507.59
2018-11-29T00:17:52.411Z,99496.16
2018-11-29T00:20:19.828Z,99503.83
2018-11-29T00:22:47.265Z,99507.43
2018-11-29T00:25:15.610Z,99520.13
2018-11-29T00:27:43.132Z,99517.98
2018-11-29T00:30:10.591Z,99518.42
2018-11-29T00:32:38.050Z,99528.52
2018-11-29T00:35:05.457Z,99532.56
2018-11-29T00:37:32.921Z,99527.02
2018-11-29T00:40:00.360Z,99533.69
2018-11-29T00:42:27.798Z,99531.36
2018-11-29T00:44:55.250Z,99533.80
2018-11-29T00:47:23.885Z,99533.50
2018-11-29T00:49:52.430Z,99529.83
2018-11-29T00:52:19.984Z,99523.88
2018-11-29T00:54:47.435Z,99513.63
2018-11-29T00:57:14.898Z,99513.63
2018-11-29T00:59:42.357Z,99516.30
2018-11-29T01:02:09.823Z,99514.27
2018-11-29T01:04:37.278Z,99507.51
2018-11-29T01:07:04.743Z,99513.76
2018-11-29T01:09:33.359Z,99520.74
2018-11-29T01:12:00.786Z,99510.42
2018-11-29T01:14:28.206Z,99515.67
2018-11-29T01:16:55.679Z,99520.83
2018-11-29T01:19:23.159Z,99529.07
2018-11-29T01:21:50.604Z,99523.89
2018-11-29T01:24:18.019Z,99523.86
2018-11-29T01:26:45.464Z,99522.93
2018-11-29T01:29:13.982Z,99520.75
2018-11-29T01:31:41.443Z,99518.61
2018-11-29T01:34:08.934Z,99526.03
2018-11-29T01:36:36.380Z,99532.05
2018-11-29T01:39:03.814Z,99519.87
2018-11-29T01:41:31.258Z,99524.66
2018-11-29T01:43:58.699Z,99523.95
2018-11-29T01:46:26.900Z,99523.88
2018-11-29T01:48:54.337Z,99525.86
2018-11-29T01:51:21.773Z,99529.13
2018-11-29T01:53:49.210Z,99515.81
2018-11-29T01:56:16.642Z,99511.84
2018-11-29T01:58:44.091Z,99515.05
2018-11-29T02:01:11.506Z,99513.28
2018-11-29T02:03:38.949Z,99509.02
2018-11-29T02:06:06.369Z,99509.47
2018-11-29T02:08:33.816Z,99509.12
2018-11-29T02:11:01.260Z,99514.38
2018-11-29T02:13:28.691Z,99510.70
2018-11-29T02:15:56.140Z,99509.22
2018-11-29T02:18:23.595Z,99501.08
2018-11-29T02:20:52.060Z,99499.65
2018-11-29T02:23:19.560Z,99501.50
2018-11-29T02:25:46.996Z,99506.73
2018-11-29T02:28:14.431Z,99500.24
2018-11-29T02:30:43.050Z,99495.63
2018-11-29T02:33:10.494Z,99496.89
2018-11-29T02:35:37.942Z,99499.98
2018-11-29T02:38:05.377Z,99502.00
2018-11-29T02:40:32.818Z,99498.92
2018-11-29T02:43:00.253Z,99492.89
2018-11-29T02:45:27.667Z,99490.36
2018-11-29T02:47:55.113Z,99493.84
2018-11-29T02:50:22.548Z,99468.39
2018-11-29T02:52:50.024Z,99487.27
2018-11-29T02:55:17.468Z,99486.52
2018-11-29T02:57:44.908Z,99495.97
2018-11-29T03:00:12.350Z,99485.88
2018-11-29T03:02:39.796Z,99483.28
2018-11-29T03:05:08.460Z,99486.33
2018-11-29T03:07:37.625Z,99467.28
2018-11-29T03:10:05.192Z,99465.99
2018-11-29T03:12:33.854Z,99467.55
2018-11-29T03:15:01.277Z,99466.03
2018-11-29T03:17:29.942Z,99463.72
2018-11-29T03:19:58.639Z,99457.69
2018-11-29T03:22:27.272Z,99462.09
2018-11-29T03:24:54.728Z,99453.56
2018-11-29T03:27:22.179Z,99461.30
2018-11-29T03:29:49.618Z,99462.72
2018-11-29T03:32:17.243Z,99455.66
2018-11-29T03:34:44.577Z,99453.38
2018-11-29T03:37:12.014Z,99456.87
2018-11-29T03:39:39.497Z,99451.84
2018-11-29T03:42:06.965Z,99455.08
2018-11-29T03:44:34.401Z,99464.22
2018-11-29T03:47:01.879Z,99467.94
2018-11-29T03:49:29.327Z,99469.32
2018-11-29T03:51:56.775Z,99473.42
2018-11-29T03:54:24.230Z,99462.86
2018-11-29T03:56:51.689Z,99464.22
2018-11-29T03:59:19.131Z,99473.39
2018-11-29T04:01:46.837Z,99468.49
2018-11-29T04:04:14.284Z,99460.58
2018-11-29T04:06:41.716Z,99461.84
2018-11-29T04:09:09.131Z,99463.39
2018-11-29T04:11:36.570Z,99463.79
2018-11-29T04:14:04.001Z,99467.09
2018-11-29T04:16:31.440Z,99469.59
2018-11-29T04:18:58.853Z,99471.20
2018-11-29T04:21:26.305Z,99464.10
2018-11-29T04:23:53.751Z,99449.55
2018-11-29T04:26:21.211Z,99450.34
2018-11-29T04:28:48.649Z,99444.68
2018-11-29T04:31:16.085Z,99456.50
2018-11-29T04:33:45.233Z,99457.71
2018-11-29T04:36:12.694Z,99463.91
2018-11-29T04:38:40.161Z,99461.25
2018-11-29T04:41:07.597Z,99470.50
2018-11-29T04:43:35.065Z,99459.71
2018-11-29T04:46:25.120Z,99463.98
2018-11-29T04:48:52.628Z,99450.55
2018-11-29T04:51:20.058Z,99458.79
2018-11-29T04:53:47.521Z,99458.05
2018-11-29T04:56:14.963Z,99442.53
2018-11-29T04:58:42.399Z,99453.47
2018-11-29T05:01:09.816Z,99441.00
2018-11-29T05:03:37.247Z,99442.23
2018-11-29T05:06:04.687Z,99445.99
2018-11-29T05:08:32.143Z,99456.25
2018-11-29T05:10:59.594Z,99439.25
2018-11-29T05:13:27.049Z,99441.41
2018-11-29T05:15:54.506Z,99433.45
2018-11-29T05:18:21.930Z,99429.41
2018-11-29T05:20:49.361Z,99438.72
2018-11-29T05:23:16.776Z,99424.05
2018-11-29T05:25:44.227Z,99429.78
2018-11-29T05:28:11.658Z,99420.91
2018-11-29T05:30:39.099Z,99430.94
2018-11-29T05:33:06.538Z,99425.96
2018-11-29T05:35:33.953Z,99423.65
2018-11-29T05:38:01.408Z,99424.27
2018-11-29T05:40:28.847Z,99430.91
2018-11-29T05:42:56.305Z,99431.40
2018-11-29T05:45:23.744Z,99430.31
2018-11-29T05:47:51.159Z,99433.28
2018-11-29T05:50:18.599Z,99424.16
2018-11-29T05:52:46.032Z,99423.13
2018-11-29T05:55:13.515Z,99433.02
2018-11-29T05:57:40.955Z,99432.29
2018-11-29T06:00:08.388Z,99432.70
2018-11-29T06:02:35.879Z,99431.30
2018-11-29T06:05:03.337Z,99430.17
2018-11-29T06:07:31.979Z,99426.27
2018-11-29T06:09:59.411Z,99422.70
2018-11-29T06:12:26.829Z,99426.83
2018-11-29T06:14:54.286Z,99428.42
2018-11-29T06:17:21.724Z,99433.05
2018-11-29T06:19:49.193Z,99429.08
2018-11-29T06:22:16.664Z,99440.47
2018-11-29T06:24:44.138Z,99433.82
2018-11-29T06:27:11.561Z,99434.84
2018-11-29T06:29:39.977Z,99430.80
2018-11-29T06:32:07.472Z,99428.98
2018-11-29T06:34:34.930Z,99433.52
2018-11-29T06:37:02.365Z,99423.45
2018-11-29T06:39:29.777Z,99428.73
2018-11-29T06:41:57.212Z,99421.36
2018-11-29T06:44:24.645Z,99421.25
2018-11-29T06:46:52.097Z,99413.72
2018-11-29T06:49:19.550Z,99415.54
2018-11-29T06:51:46.989Z,99403.29
2018-11-29T06:54:14.437Z,99403.42
2018-11-29T06:56:41.885Z,99407.86
2018-11-29T06:59:09.330Z,99401.90
2018-11-29T07:01:36.763Z,99385.84
2018-11-29T07:04:05.194Z,99394.78
2018-11-29T07:06:32.754Z,99383.81
2018-11-29T07:09:00.183Z,99383.47
2018-11-29T07:11:27.626Z,99375.45
2018-11-29T07:13:55.089Z,99373.51
2018-11-29T07:16:22.527Z,99373.59
2018-11-29T07:18:49.953Z,99368.36
2018-11-29T07:21:38.898Z,99367.02
2018-11-29T07:24:06.343Z,99358.95
2018-11-29T07:26:34.469Z,99359.89
2018-11-29T07:29:02.027Z,99349.70
2018-11-29T07:31:29.459Z,99351.37
2018-11-29T07:33:56.897Z,99338.44
2018-11-29T07:36:24.324Z,99344.42
2018-11-29T07:38:51.774Z,99347.24
2018-11-29T07:41:19.226Z,99348.26
2018-11-29T07:43:46.643Z,99342.03
2018-11-29T07:46:14.074Z,99335.48
2018-11-29T07:48:41.509Z,99344.73
2018-11-29T07:51:08.974Z,99335.16
2018-11-29T07:53:36.403Z,99339.94
2018-11-29T07:56:03.862Z,99334.16
2018-11-29T07:58:31.284Z,99331.80
2018-11-29T08:00:59.245Z,99331.15
2018-11-29T08:03:26.756Z,99328.48
2018-11-29T08:05:54.213Z,99327.61
2018-11-29T08:08:21.748Z,99331.09
2018-11-29T08:10:49.194Z,99327.80
2018-11-29T08:13:16.646Z,99335.66
2018-11-29T08:15:44.114Z,99335.43
2018-11-29T08:18:11.574Z,99334.11
2018-11-29T08:20:39.025Z,99345.60
2018-11-29T08:23:06.459Z,99335.08
2018-11-29T08:25:33.889Z,99331.22
2018-11-29T08:28:01.343Z,99330.80
2018-11-29T08:30:28.764Z,99330.19
2018-11-29T08:32:56.216Z,99329.39
2018-11-29T08:35:23.652Z,99324.20
2018-11-29T08:37:51.098Z,99328.88
2018-11-29T08:40:18.558Z,99314.46
2018-11-29T08:42:46.000Z,99304.80
2018-11-29T08:45:13.436Z,99307.52
2018-11-29T08:47:40.883Z,99298.67
2018-11-29T08:50:08.305Z,99316.20
2018-11-29T08:52:35.782Z,99292.64
2018-11-29T08:55:03.228Z,99299.58
2018-11-29T08:57:30.682Z,99299.89
2018-11-29T08:59:58.121Z,99307.96
2018-11-29T09:02:25.562Z,99309.47
2018-11-29T09:04:53.020Z,99307.86
2018-11-29T09:07:20.430Z,99303.85
2018-11-29T09:09:47.894Z,99319.16
2018-11-29T09:12:15.333Z,99322.87
2018-11-29T09:14:42.804Z,99307.59
2018-11-29T09:17:10.355Z,99312.88
2018-11-29T09:19:37.741Z,99312.06
2018-11-29T09:22:05.235Z,99314.08
2018-11-29T09:24:32.670Z,99321.20
2018-11-29T09:27:00.134Z,99335.41
2018-11-29T09:29:27.569Z,99335.07
2018-11-29T09:31:55.037Z,99333.78
2018-11-29T09:34:22.497Z,99337.30
2018-11-29T09:36:49.945Z,99331.85
2018-11-29T09:39:17.416Z,99343.20
2018-11-29T09:41:44.849Z,99341.58
2018-11-29T09:44:12.275Z,99340.75
2018-11-29T09:46:39.726Z,99340.98
2018-11-29T10:06:09.978Z,99332.11
2018-11-29T10:08:37.439Z,99327.78
2018-11-29T10:11:04.906Z,99326.27
2018-11-29T10:13:32.371Z,99332.05
2018-11-29T10:15:59.801Z,99326.38
2018-11-29T10:18:27.248Z,99319.66
2018-11-29T10:20:54.689Z,99315.98
2018-11-29T10:23:22.136Z,99313.01
2018-11-29T10:25:49.573Z,99307.39
2018-11-29T10:28:17.038Z,99304.03
2018-11-29T10:30:44.487Z,99308.47
2018-11-29T10:33:11.959Z,99295.55
2018-11-29T10:35:39.381Z,99292.26
2018-11-29T10:38:06.835Z,99295.30
2018-11-29T10:40:34.784Z,99278.03
2018-11-29T10:43:02.248Z,99259.98
2018-11-29T10:45:29.787Z,99249.38
2018-11-29T10:47:57.177Z,99247.91
2018-11-29T10:50:24.711Z,99239.09
2018-11-29T10:52:52.111Z,99229.14
2018-11-29T10:55:19.583Z,99227.77
2018-11-29T10:57:47.031Z,99234.15
2018-11-29T11:00:14.477Z,99247.81
2018-11-29T11:02:41.968Z,99239.72
2018-11-29T11:05:09.453Z,99233.38
2018-11-29T11:07:36.890Z,99226.75
2018-11-29T11:10:04.353Z,99220.29
2018-11-29T11:12:31.842Z,99218.34
2018-11-29T11:14:59.278Z,99205.58
2018-11-29T11:17:26.755Z,99183.80
2018-11-29T11:19:54.201Z,99188.72
2018-11-29T11:22:21.644Z,99191.78
2018-11-29T11:24:49.125Z,99202.51
2018-11-29T11:27:16.558Z,99199.86
2018-11-29T11:29:44.039Z,99202.68
2018-11-29T11:32:11.487Z,99208.95
2018-11-29T11:34:38.951Z,99202.15
2018-11-29T11:37:06.402Z,99200.47
2018-11-29T11:39:33.874Z,99201.59
2018-11-29T11:42:01.334Z,99206.64
2018-11-29T11:44:28.786Z,99214.88
2018-11-29T11:46:56.277Z,99227.45
2018-11-29T11:49:23.832Z,99235.55
2018-11-29T11:51:51.314Z,99238.63
2018-11-29T11:54:18.780Z,99240.17
2018-11-29T11:56:46.312Z,99238.27
2018-11-29T11:59:15.821Z,99222.33
2018-11-29T12:01:43.360Z,99212.99
2018-11-29T12:04:10.825Z,99199.42
2018-11-29T12:06:38.296Z,99202.83
2018-11-29T12:09:05.803Z,99199.11
2018-11-29T12:11:33.320Z,99198.48
2018-11-29T12:14:00.748Z,99193.20
2018-11-29T12:16:28.225Z,99183.47
2018-11-29T12:19:02.092Z,99181.44
2018-11-29T12:21:23.405Z,99173.77
2018-11-29T12:23:50.832Z,99156.52
2018-11-29T12:26:18.292Z,99156.95
2018-11-29T12:28:45.775Z,99133.06
2018-11-29T12:31:13.234Z,99083.83
2018-11-29T12:33:40.681Z,99064.12
2018-11-29T12:36:08.191Z,99056.16
2018-11-29T12:38:35.636Z,99051.56
2018-11-29T12:41:03.123Z,99019.06
2018-11-29T12:43:30.546Z,99018.92
2018-11-29T12:45:57.975Z,98985.76
2018-11-29T12:48:25.437Z,98968.52
2018-11-29T12:50:52.886Z,98965.34
2018-11-29T13:10:23.729Z,98944.11
2018-11-29T13:12:50.190Z,98980.22
2018-11-29T13:15:17.729Z,98975.89
2018-11-29T13:17:45.125Z,98972.00
2018-11-29T13:20:12.563Z,99001.23
2018-11-29T13:22:40.028Z,99068.70
2018-11-29T13:25:07.476Z,99080.73
2018-11-29T13:27:34.927Z,99069.17
2018-11-29T13:30:02.406Z,99043.25
2018-11-29T13:32:29.852Z,99050.71
2018-11-29T13:34:57.312Z,99031.70
2018-11-29T13:37:24.818Z,99031.33
2018-11-29T13:39:52.279Z,98999.65
2018-11-29T13:42:19.751Z,98985.83
2018-11-29T13:44:47.293Z,98996.48
2018-11-29T13:47:14.647Z,99024.53
2018-11-29T13:49:42.100Z,99008.31
2018-11-29T13:52:09.540Z,99014.47
2018-11-29T13:54:36.992Z,98990.67
2018-11-29T13:57:04.447Z,99010.19
2018-11-29T13:59:31.904Z,99001.59
2018-11-29T14:01:59.375Z,98989.30
2018-11-29T14:04:26.848Z,98978.09
2018-11-29T14:06:55.097Z,98948.34
2018-11-29T14:09:22.644Z,98921.42
2018-11-29T14:11:50.076Z,98934.03
2018-11-29T14:14:17.539Z,98959.28
2018-11-29T14:16:44.998Z,98940.89
2018-11-29T14:19:12.464Z,98910.50
2018-11-29T14:21:39.906Z,98907.08
2018-11-29T14:24:07.327Z,98880.16
2018-11-29T14:26:34.797Z,98901.80
2018-11-29T14:29:02.242Z,98880.50
2018-11-29T14:31:29.676Z,98855.75
2018-11-29T14:33:57.137Z,98843.58
2018-11-29T14:36:24.573Z,98857.64
2018-11-29T14:38:52.011Z,98861.11
2018-11-29T14:41:19.491Z,98862.11
2018-11-29T14:43:46.958Z,98849.00
2018-11-29T14:46:14.469Z,98849.94
2018-11-29T14:48:41.953Z,98845.14
2018-11-29T14:51:09.411Z,98837.91
2018-11-29T14:53:37.957Z,98839.08
2018-11-29T14:56:05.401Z,98842.71
2018-11-29T14:58:32.852Z,98838.58
2018-11-29T15:01:00.271Z,98844.86
2018-11-29T15:03:27.724Z,98842.70
2018-11-29T15:05:55.165Z,98841.66
2018-11-29T15:08:22.631Z,98835.02
2018-11-29T15:10:50.042Z,98837.45
2018-11-29T15:13:17.481Z,98834.87
2018-11-29T15:15:45.843Z,98855.13
2018-11-29T15:18:13.359Z,98858.53
2018-11-29T15:20:40.830Z,98867.85
2018-11-29T15:23:08.251Z,98878.66
2018-11-29T15:25:35.707Z,98878.39
2018-11-29T15:28:03.147Z,98885.34
2018-11-29T15:30:30.614Z,98879.48
2018-11-29T15:32:58.066Z,98877.73
2018-11-29T15:35:25.547Z,98877.45
2018-11-29T15:37:53.003Z,98866.14
2018-11-29T15:40:20.491Z,98858.57
2018-11-29T15:42:48.471Z,98855.21
2018-11-29T15:45:15.919Z,98857.36
2018-11-29T15:47:43.363Z,98842.85
2018-11-29T15:50:10.818Z,98838.12
2018-11-29T15:52:38.278Z,98838.28
2018-11-29T15:55:05.705Z,98834.34
2018-11-29T15:57:34.989Z,98850.06
2018-11-29T16:00:00.579Z,98849.44
2018-11-29T16:02:28.029Z,98865.25
2018-11-29T16:04:56.619Z,98869.69
2018-11-29T16:07:24.178Z,98863.94
2018-11-29T16:09:51.613Z,98861.52
2018-11-29T16:12:19.072Z,98855.95
2018-11-29T16:14:46.511Z,98854.91
2018-11-29T16:17:13.955Z,98874.70
2018-11-29T16:19:41.411Z,98865.87
2018-11-29T16:22:08.885Z,98887.64
2018-11-29T16:24:36.331Z,98901.59
2018-11-29T16:27:03.808Z,98910.81
2018-11-29T16:29:31.265Z,98898.77
2018-11-29T16:31:58.735Z,98916.00
2018-11-29T16:34:26.165Z,98904.06
2018-11-29T16:36:53.572Z,98903.47
2018-11-29T16:39:21.009Z,98889.33
2018-11-29T16:41:48.429Z,98889.22
2018-11-29T16:44:15.886Z,98889.25
2018-11-29T16:46:43.360Z,98878.75
2018-11-29T16:49:10.787Z,98867.96
2018-11-29T16:51:38.243Z,98869.23
2018-11-29T16:56:43.499Z,98880.09
2018-11-29T16:59:10.941Z,98875.69
2018-11-29T17:01:38.467Z,98882.94
2018-11-29T17:04:06.730Z,98883.44
2018-11-29T17:06:34.226Z,98882.55
2018-11-29T17:09:01.697Z,98878.75
2018-11-29T17:11:29.906Z,98903.64
2018-11-29T17:13:57.439Z,98912.12
2018-11-29T17:16:26.091Z,98915.81
2018-11-29T17:18:53.556Z,98903.88
2018-11-29T17:21:24.725Z,98902.05
2018-11-29T17:23:52.168Z,98902.05
2018-11-29T17:26:21.891Z,98902.16
2018-11-29T17:28:49.364Z,98897.20
2018-11-29T17:31:16.802Z,98900.02
2018-11-29T17:33:44.295Z,98910.17
2018-11-29T17:36:12.854Z,98925.48
2018-11-29T17:38:41.970Z,98918.85
2018-11-29T17:41:09.513Z,98927.68
2018-11-29T17:43:36.947Z,98920.93
2018-11-29T17:46:04.367Z,98917.03
2018-11-29T17:48:31.827Z,98922.05
2018-11-29T17:51:00.154Z,98918.76
2018-11-29T17:53:27.701Z,98898.19
2018-11-29T17:55:55.160Z,98900.22
2018-11-29T17:58:22.630Z,98900.20
2018-11-29T18:00:50.060Z,98901.07
2018-11-29T18:03:17.519Z,98893.66
2018-11-29T18:05:44.968Z,98887.03
2018-11-29T18:08:12.436Z,98900.27
2018-11-29T18:10:39.901Z,98904.80
2018-11-29T18:13:07.341Z,98911.18
2018-11-29T18:15:34.774Z,98905.03
2018-11-29T18:18:02.212Z,98916.16
2018-11-29T18:20:29.654Z,98916.23
2018-11-29T18:22:57.096Z,98919.54
2018-11-29T18:25:24.528Z,98935.47
2018-11-29T18:27:51.963Z,98945.39
2018-11-29T18:30:19.418Z,98939.30
2018-11-29T18:32:46.856Z,98941.92
2018-11-29T18:35:14.311Z,98937.69
2018-11-29T18:37:41.780Z,98944.86
2018-11-29T18:40:10.451Z,98954.50
2018-11-29T18:42:37.957Z,98952.13
2018-11-29T18:45:05.388Z,98963.20
2018-11-29T18:47:32.819Z,98955.09
2018-11-29T18:50:00.265Z,98963.48
2018-11-29T18:52:27.728Z,98953.77
2018-11-29T18:54:55.144Z,98956.95
2018-11-29T19:14:25.164Z,98945.41
2018-11-29T19:16:52.582Z,98957.47
2018-11-29T19:19:20.086Z,98943.66
2018-11-29T19:21:47.559Z,98949.43
2018-11-29T19:24:16.258Z,98951.03
2018-11-29T19:26:43.837Z,98946.09
2018-11-29T19:29:11.353Z,98937.93
2018-11-29T19:31:38.814Z,98933.88
2018-11-29T19:34:06.247Z,98921.88
2018-11-29T19:36:33.715Z,98918.73
2018-11-29T19:39:01.137Z,98924.73
2018-11-29T19:41:28.611Z,98930.41
2018-11-29T19:43:57.275Z,98951.11
2018-11-29T19:46:24.642Z,98939.42
2018-11-29T19:48:52.113Z,98917.22
2018-11-29T19:51:19.564Z,98922.52
2018-11-29T19:53:47.024Z,98937.12
2018-11-29T19:56:14.482Z,98937.48
2018-11-29T19:58:41.967Z,98937.33
2018-11-29T20:01:10.606Z,98940.77
2018-11-29T20:03:38.069Z,98932.70
2018-11-29T20:06:05.522Z,98927.32
2018-11-29T20:08:32.995Z,98939.04
2018-11-29T20:11:00.444Z,98931.09
2018-11-29T20:13:27.893Z,98915.74
2018-11-29T20:15:56.556Z,98927.73
2018-11-29T20:18:23.990Z,98930.64
2018-11-29T20:20:51.463Z,98944.70
2018-11-29T20:23:18.925Z,98928.97
2018-11-29T20:25:46.378Z,98940.11
2018-11-29T20:28:14.900Z,98950.76
2018-11-29T20:30:42.330Z,98958.21
2018-11-29T20:33:10.479Z,98952.20
2018-11-29T20:35:38.123Z,98944.36
2018-11-29T20:38:05.637Z,98953.33
2018-11-29T20:40:33.071Z,98945.66
2018-11-29T20:43:00.507Z,98952.22
2018-11-29T20:45:28.032Z,98956.58
2018-11-29T20:47:55.408Z,98947.06
2018-11-29T20:50:22.876Z,98955.98
2018-11-29T20:52:50.334Z,98939.13
2018-11-29T20:55:17.767Z,98941.08
2018-11-29T20:57:46.213Z,98946.02
2018-11-29T21:00:13.725Z,98941.83
2018-11-29T21:02:41.214Z,98945.77
2018-11-29T21:05:08.664Z,98934.05
2018-11-29T21:07:36.105Z,98942.52
2018-11-29T21:10:03.531Z,98939.46
2018-11-29T21:12:31.005Z,98932.84
2018-11-29T21:14:59.530Z,98931.83
2018-11-29T21:17:26.996Z,98948.34
2018-11-29T21:19:55.617Z,98943.16
2018-11-29T21:22:23.074Z,98919.13
2018-11-29T21:24:50.516Z,98920.83
2018-11-29T21:27:21.720Z,98923.38
2018-11-29T21:29:49.182Z,98931.83
2018-11-29T21:32:16.656Z,98941.53
2018-11-29T21:34:44.099Z,98940.05
2018-11-29T21:37:11.532Z,98953.36
2018-11-29T21:39:39.422Z,98965.05
2018-11-29T21:42:06.901Z,98967.13
2018-11-29T21:44:34.361Z,98970.28
2018-11-29T21:47:01.861Z,98967.30
2018-11-29T21:49:29.330Z,98960.78
2018-11-29T21:51:56.766Z,98975.80
2018-11-29T21:54:24.220Z,98970.53
2018-11-29T21:56:51.727Z,98981.72
2018-11-29T21:59:19.212Z,98969.90
2018-11-29T22:01:46.693Z,98969.80
2018-11-29T22:04:14.129Z,98988.56
2018-11-29T22:06:41.562Z,98969.80
2018-11-29T22:09:09.002Z,98971.28
2018-11-29T22:11:36.769Z,98977.23
2018-11-29T22:14:04.236Z,98968.30
2018-11-29T22:16:31.685Z,98971.09
2018-11-29T22:18:59.156Z,98956.27
2018-11-29T22:21:26.624Z,98962.89
2018-11-29T22:23:54.079Z,98963.27
2018-11-29T22:26:21.519Z,98966.47
2018-11-29T22:28:48.962Z,98960.95
2018-11-29T22:31:16.412Z,98957.20
2018-11-29T22:33:43.876Z,98959.79
2018-11-29T22:36:11.396Z,98960.33
2018-11-29T22:38:38.820Z,98954.62
2018-11-29T22:41:06.269Z,98947.41
2018-11-29T22:43:33.703Z,98956.73
2018-11-29T22:46:01.164Z,98961.06
2018-11-29T22:48:28.586Z,98954.94
2018-11-29T22:50:56.031Z,98955.97
2018-11-29T22:53:23.476Z,98954.61
2018-11-29T22:55:50.942Z,98948.95
2018-11-29T22:58:18.394Z,98947.87
2018-11-29T23:00:45.806Z,98952.39
2018-11-29T23:03:13.281Z,98954.93
2018-11-29T23:05:40.752Z,98956.33
2018-11-29T23:08:08.194Z,98951.27
2018-11-29T23:10:35.653Z,98951.80
2018-11-29T23:13:04.010Z,98951.80
2018-11-29T23:15:31.588Z,98946.16
2018-11-29T23:18:00.121Z,98946.64
2018-11-29T23:20:27.599Z,98946.07
2018-11-29T23:22:55.043Z,98948.19
2018-11-29T23:25:22.537Z,98940.38
2018-11-29T23:27:50.896Z,98934.91
2018-11-29T23:30:18.381Z,98946.70
2018-11-29T23:32:45.845Z,98940.64
2018-11-29T23:35:13.312Z,98930.89
2018-11-29T23:37:41.913Z,98943.45
2018-11-29T23:40:09.356Z,98950.67
2018-11-29T23:42:36.844Z,98942.09
2018-11-29T23:45:04.263Z,98936.47
2018-11-29T23:47:31.706Z,98937.44
2018-11-29T23:49:59.122Z,98939.47
2018-11-29T23:52:26.883Z,98930.57
2018-11-29T23:54:54.464Z,98939.24
2018-11-29T23:57:22.975Z,98934.78
2018-11-29T23:59:50.461Z,98928.23
